sensor_id;sensor_type;location;lat;lon;timestamp;temperature;humidity
23681;DHT22;62915;50.832;4.462;2023-11-21T00:01:01;11.70;99.90
23681;DHT22;62915;50.832;4.462;2023-11-21T00:03:29;11.60;99.90
23681;DHT22;62915;50.832;4.462;2023-11-21T00:05:55;11.60;99.90
23681;DHT22;62915;50.832;4.462;2023-11-21T00:08:20;11.60;99.90
23681;DHT22;62915;50.832;4.462;2023-11-21T00:10:46;11.60;99.90
23681;DHT22;62915;50.832;4.462;2023-11-21T00:13:11;11.60;99.90
23681;DHT22;62915;50.832;4.462;2023-11-21T00:15:37;11.60;99.90
23681;DHT22;62915;50.832;4.462;2023-11-21T00:18:04;11.60;99.90
23681;DHT22;62915;50.832;4.462;2023-11-21T00:20:30;11.60;99.90
23681;DHT22;62915;50.832;4.462;2023-11-21T00:22:56;11.70;99.90
23681;DHT22;62915;50.832;4.462;2023-11-21T00:25:21;11.70;99.90
23681;DHT22;62915;50.832;4.462;2023-11-21T00:27:47;11.60;99.90
23681;DHT22;62915;50.832;4.462;2023-11-21T00:30:13;11.70;99.90
23681;DHT22;62915;50.832;4.462;2023-11-21T00:32:39;11.60;99.90
23681;DHT22;62915;50.832;4.462;2023-11-21T00:35:05;11.60;99.90
23681;DHT22;62915;50.832;4.462;2023-11-21T00:37:31;11.60;99.90
23681;DHT22;62915;50.832;4.462;2023-11-21T00:39:57;11.50;99.90
23681;DHT22;62915;50.832;4.462;2023-11-21T00:42:23;11.50;99.90
23681;DHT22;62915;50.832;4.462;2023-11-21T00:44:49;11.50;99.90
23681;DHT22;62915;50.832;4.462;2023-11-21T00:47:14;11.50;99.90
23681;DHT22;62915;50.832;4.462;2023-11-21T00:49:40;11.50;99.90
23681;DHT22;62915;50.832;4.462;2023-11-21T00:52:06;11.50;99.90
23681;DHT22;62915;50.832;4.462;2023-11-21T00:54:32;11.40;99.90
23681;DHT22;62915;50.832;4.462;2023-11-21T00:56:58;11.40;99.90
23681;DHT22;62915;50.832;4.462;2023-11-21T00:59:24;11.30;99.90
23681;DHT22;62915;50.832;4.462;2023-11-21T01:01:50;11.30;99.90
23681;DHT22;62915;50.832;4.462;2023-11-21T01:04:15;11.20;99.90
23681;DHT22;62915;50.832;4.462;2023-11-21T01:06:41;11.20;99.90
23681;DHT22;62915;50.832;4.462;2023-11-21T01:09:06;11.10;99.90
23681;DHT22;62915;50.832;4.462;2023-11-21T01:11:36;11.10;99.90
23681;DHT22;62915;50.832;4.462;2023-11-21T01:14:03;11.10;99.90
23681;DHT22;62915;50.832;4.462;2023-11-21T01:16:30;11.10;99.90
23681;DHT22;62915;50.832;4.462;2023-11-21T01:18:58;11.10;99.90
23681;DHT22;62915;50.832;4.462;2023-11-21T01:21:24;11.10;99.90
23681;DHT22;62915;50.832;4.462;2023-11-21T01:23:50;11.10;99.90
23681;DHT22;62915;50.832;4.462;2023-11-21T01:26:16;11.20;99.90
23681;DHT22;62915;50.832;4.462;2023-11-21T01:28:41;11.20;99.90
23681;DHT22;62915;50.832;4.462;2023-11-21T01:31:07;11.20;99.90
23681;DHT22;62915;50.832;4.462;2023-11-21T01:33:32;11.20;99.90
23681;DHT22;62915;50.832;4.462;2023-11-21T01:35:58;11.30;99.90
23681;DHT22;62915;50.832;4.462;2023-11-21T01:38:25;11.30;99.90
23681;DHT22;62915;50.832;4.462;2023-11-21T01:40:51;11.30;99.90
23681;DHT22;62915;50.832;4.462;2023-11-21T01:43:16;11.30;99.90
23681;DHT22;62915;50.832;4.462;2023-11-21T01:45:42;11.30;99.90
23681;DHT22;62915;50.832;4.462;2023-11-21T01:48:08;11.30;99.90
23681;DHT22;62915;50.832;4.462;2023-11-21T01:50:34;11.20;99.90
23681;DHT22;62915;50.832;4.462;2023-11-21T01:52:59;11.30;99.90
23681;DHT22;62915;50.832;4.462;2023-11-21T01:55:25;11.20;99.90
23681;DHT22;62915;50.832;4.462;2023-11-21T01:57:52;11.20;99.90
23681;DHT22;62915;50.832;4.462;2023-11-21T02:00:18;11.20;99.90
23681;DHT22;62915;50.832;4.462;2023-11-21T02:02:48;11.30;99.90
23681;DHT22;62915;50.832;4.462;2023-11-21T02:05:17;11.30;99.90
23681;DHT22;62915;50.832;4.462;2023-11-21T02:07:46;11.20;99.90
23681;DHT22;62915;50.832;4.462;2023-11-21T02:10:16;11.30;99.90
23681;DHT22;62915;50.832;4.462;2023-11-21T02:12:42;11.30;99.90
23681;DHT22;62915;50.832;4.462;2023-11-21T02:15:08;11.30;99.90
23681;DHT22;62915;50.832;4.462;2023-11-21T02:17:35;11.30;99.90
23681;DHT22;62915;50.832;4.462;2023-11-21T02:20:01;11.30;99.90
23681;DHT22;62915;50.832;4.462;2023-11-21T02:22:27;11.30;99.90
23681;DHT22;62915;50.832;4.462;2023-11-21T02:24:56;11.40;99.90
23681;DHT22;62915;50.832;4.462;2023-11-21T02:27:23;11.40;99.90
23681;DHT22;62915;50.832;4.462;2023-11-21T02:29:49;11.30;99.90
23681;DHT22;62915;50.832;4.462;2023-11-21T02:32:15;11.40;99.90
23681;DHT22;62915;50.832;4.462;2023-11-21T02:34:42;11.40;99.90
23681;DHT22;62915;50.832;4.462;2023-11-21T02:37:09;11.40;99.90
23681;DHT22;62915;50.832;4.462;2023-11-21T02:39:35;11.30;99.90
23681;DHT22;62915;50.832;4.462;2023-11-21T02:42:01;11.30;99.90
23681;DHT22;62915;50.832;4.462;2023-11-21T02:44:26;11.40;99.90
23681;DHT22;62915;50.832;4.462;2023-11-21T02:46:52;11.30;99.90
23681;DHT22;62915;50.832;4.462;2023-11-21T02:49:17;11.30;99.90
23681;DHT22;62915;50.832;4.462;2023-11-21T02:51:43;11.30;99.90
23681;DHT22;62915;50.832;4.462;2023-11-21T02:54:08;11.30;99.90
23681;DHT22;62915;50.832;4.462;2023-11-21T02:56:34;11.30;99.90
23681;DHT22;62915;50.832;4.462;2023-11-21T02:59:00;11.10;99.90
23681;DHT22;62915;50.832;4.462;2023-11-21T03:01:26;11.10;99.90
23681;DHT22;62915;50.832;4.462;2023-11-21T03:03:53;11.20;99.90
23681;DHT22;62915;50.832;4.462;2023-11-21T03:06:19;11.30;99.90
23681;DHT22;62915;50.832;4.462;2023-11-21T03:08:45;11.30;99.90
23681;DHT22;62915;50.832;4.462;2023-11-21T03:11:11;11.30;99.90
23681;DHT22;62915;50.832;4.462;2023-11-21T03:13:41;11.30;99.90
23681;DHT22;62915;50.832;4.462;2023-11-21T03:16:10;11.30;99.90
23681;DHT22;62915;50.832;4.462;2023-11-21T03:18:36;11.30;99.90
23681;DHT22;62915;50.832;4.462;2023-11-21T03:21:02;11.40;99.90
23681;DHT22;62915;50.832;4.462;2023-11-21T03:23:28;11.40;99.90
23681;DHT22;62915;50.832;4.462;2023-11-21T03:25:53;11.40;99.90
23681;DHT22;62915;50.832;4.462;2023-11-21T03:28:19;11.30;99.90
23681;DHT22;62915;50.832;4.462;2023-11-21T03:30:44;11.30;99.90
23681;DHT22;62915;50.832;4.462;2023-11-21T03:33:10;11.40;99.90
23681;DHT22;62915;50.832;4.462;2023-11-21T03:35:36;11.40;99.90
23681;DHT22;62915;50.832;4.462;2023-11-21T03:38:02;11.40;99.90
23681;DHT22;62915;50.832;4.462;2023-11-21T03:40:27;11.40;99.90
23681;DHT22;62915;50.832;4.462;2023-11-21T03:42:53;11.50;99.90
23681;DHT22;62915;50.832;4.462;2023-11-21T03:45:18;11.50;99.90
23681;DHT22;62915;50.832;4.462;2023-11-21T03:47:44;11.50;99.90
23681;DHT22;62915;50.832;4.462;2023-11-21T03:50:09;11.60;99.90
23681;DHT22;62915;50.832;4.462;2023-11-21T03:52:37;11.50;99.90
23681;DHT22;62915;50.832;4.462;2023-11-21T03:55:02;11.50;99.90
23681;DHT22;62915;50.832;4.462;2023-11-21T03:57:28;11.50;99.90
23681;DHT22;62915;50.832;4.462;2023-11-21T03:59:54;11.60;99.90
23681;DHT22;62915;50.832;4.462;2023-11-21T04:02:19;11.50;99.90
23681;DHT22;62915;50.832;4.462;2023-11-21T04:04:45;11.60;99.90
23681;DHT22;62915;50.832;4.462;2023-11-21T04:07:11;11.50;99.90
23681;DHT22;62915;50.832;4.462;2023-11-21T04:09:39;11.50;99.90
23681;DHT22;62915;50.832;4.462;2023-11-21T04:12:04;11.50;99.90
23681;DHT22;62915;50.832;4.462;2023-11-21T04:14:30;11.50;99.90
23681;DHT22;62915;50.832;4.462;2023-11-21T04:16:56;11.50;99.90
23681;DHT22;62915;50.832;4.462;2023-11-21T04:19:21;11.50;99.90
23681;DHT22;62915;50.832;4.462;2023-11-21T04:21:47;11.50;99.90
23681;DHT22;62915;50.832;4.462;2023-11-21T04:24:12;11.40;99.90
23681;DHT22;62915;50.832;4.462;2023-11-21T04:26:38;11.50;99.90
23681;DHT22;62915;50.832;4.462;2023-11-21T04:29:04;11.40;99.90
23681;DHT22;62915;50.832;4.462;2023-11-21T04:31:30;11.40;99.90
23681;DHT22;62915;50.832;4.462;2023-11-21T04:33:56;11.40;99.90
23681;DHT22;62915;50.832;4.462;2023-11-21T04:36:21;11.40;99.90
23681;DHT22;62915;50.832;4.462;2023-11-21T04:38:47;11.30;99.90
23681;DHT22;62915;50.832;4.462;2023-11-21T04:41:12;11.30;99.90
23681;DHT22;62915;50.832;4.462;2023-11-21T04:43:38;11.40;99.90
23681;DHT22;62915;50.832;4.462;2023-11-21T04:46:04;11.50;99.90
23681;DHT22;62915;50.832;4.462;2023-11-21T04:48:29;11.50;99.90
23681;DHT22;62915;50.832;4.462;2023-11-21T04:50:55;11.50;99.90
23681;DHT22;62915;50.832;4.462;2023-11-21T04:53:20;11.60;99.90
23681;DHT22;62915;50.832;4.462;2023-11-21T04:55:46;11.60;99.90
23681;DHT22;62915;50.832;4.462;2023-11-21T04:58:12;11.60;99.90
23681;DHT22;62915;50.832;4.462;2023-11-21T05:00:37;11.50;99.90
23681;DHT22;62915;50.832;4.462;2023-11-21T05:03:03;11.50;99.90
23681;DHT22;62915;50.832;4.462;2023-11-21T05:05:30;11.50;99.90
23681;DHT22;62915;50.832;4.462;2023-11-21T05:07:55;11.60;99.90
23681;DHT22;62915;50.832;4.462;2023-11-21T05:10:21;11.50;99.90
23681;DHT22;62915;50.832;4.462;2023-11-21T05:12:48;11.50;99.90
23681;DHT22;62915;50.832;4.462;2023-11-21T05:15:15;11.50;99.90
23681;DHT22;62915;50.832;4.462;2023-11-21T05:17:42;11.50;99.90
23681;DHT22;62915;50.832;4.462;2023-11-21T05:20:13;11.40;99.90
23681;DHT22;62915;50.832;4.462;2023-11-21T05:22:39;11.40;99.90
23681;DHT22;62915;50.832;4.462;2023-11-21T05:25:05;11.30;99.90
23681;DHT22;62915;50.832;4.462;2023-11-21T05:27:32;11.40;99.90
23681;DHT22;62915;50.832;4.462;2023-11-21T05:29:58;11.40;99.90
23681;DHT22;62915;50.832;4.462;2023-11-21T05:32:24;11.40;99.90
23681;DHT22;62915;50.832;4.462;2023-11-21T05:34:50;11.40;99.90
23681;DHT22;62915;50.832;4.462;2023-11-21T05:37:16;11.50;99.90
23681;DHT22;62915;50.832;4.462;2023-11-21T05:39:43;11.40;99.90
23681;DHT22;62915;50.832;4.462;2023-11-21T05:42:08;11.40;99.90
23681;DHT22;62915;50.832;4.462;2023-11-21T05:44:36;11.50;99.90
23681;DHT22;62915;50.832;4.462;2023-11-21T05:47:02;11.40;99.90
23681;DHT22;62915;50.832;4.462;2023-11-21T05:49:29;11.50;99.90
23681;DHT22;62915;50.832;4.462;2023-11-21T05:51:55;11.50;99.90
23681;DHT22;62915;50.832;4.462;2023-11-21T05:54:21;11.50;99.90
23681;DHT22;62915;50.832;4.462;2023-11-21T05:56:47;11.40;99.90
23681;DHT22;62915;50.832;4.462;2023-11-21T05:59:13;11.40;99.90
23681;DHT22;62915;50.832;4.462;2023-11-21T06:01:38;11.40;99.90
23681;DHT22;62915;50.832;4.462;2023-11-21T06:04:04;11.40;99.90
23681;DHT22;62915;50.832;4.462;2023-11-21T06:06:30;11.50;99.90
23681;DHT22;62915;50.832;4.462;2023-11-21T06:08:56;11.50;99.90
23681;DHT22;62915;50.832;4.462;2023-11-21T06:11:22;11.60;99.90
23681;DHT22;62915;50.832;4.462;2023-11-21T06:13:47;11.60;99.90
23681;DHT22;62915;50.832;4.462;2023-11-21T06:16:13;11.60;99.90
23681;DHT22;62915;50.832;4.462;2023-11-21T06:18:41;11.40;99.90
23681;DHT22;62915;50.832;4.462;2023-11-21T06:21:10;11.50;99.90
23681;DHT22;62915;50.832;4.462;2023-11-21T06:23:36;11.40;99.90
23681;DHT22;62915;50.832;4.462;2023-11-21T06:26:01;11.40;99.90
23681;DHT22;62915;50.832;4.462;2023-11-21T06:28:28;11.50;99.90
23681;DHT22;62915;50.832;4.462;2023-11-21T06:30:53;11.60;99.90
23681;DHT22;62915;50.832;4.462;2023-11-21T06:33:19;11.60;99.90
23681;DHT22;62915;50.832;4.462;2023-11-21T06:35:47;11.60;99.90
23681;DHT22;62915;50.832;4.462;2023-11-21T06:38:12;11.70;99.90
23681;DHT22;62915;50.832;4.462;2023-11-21T06:40:38;11.60;99.90
23681;DHT22;62915;50.832;4.462;2023-11-21T06:43:04;11.60;99.90
23681;DHT22;62915;50.832;4.462;2023-11-21T06:45:32;11.60;99.90
23681;DHT22;62915;50.832;4.462;2023-11-21T06:47:59;11.70;99.90
23681;DHT22;62915;50.832;4.462;2023-11-21T06:50:25;11.70;99.90
23681;DHT22;62915;50.832;4.462;2023-11-21T06:52:51;11.60;99.90
23681;DHT22;62915;50.832;4.462;2023-11-21T06:55:16;11.60;99.90
23681;DHT22;62915;50.832;4.462;2023-11-21T06:57:43;11.60;99.90
23681;DHT22;62915;50.832;4.462;2023-11-21T07:00:10;11.60;99.90
23681;DHT22;62915;50.832;4.462;2023-11-21T07:02:36;11.60;99.90
23681;DHT22;62915;50.832;4.462;2023-11-21T07:05:02;11.50;99.90
23681;DHT22;62915;50.832;4.462;2023-11-21T07:07:28;11.60;99.90
23681;DHT22;62915;50.832;4.462;2023-11-21T07:09:53;11.60;99.90
23681;DHT22;62915;50.832;4.462;2023-11-21T07:12:19;11.60;99.90
23681;DHT22;62915;50.832;4.462;2023-11-21T07:14:45;11.70;99.90
23681;DHT22;62915;50.832;4.462;2023-11-21T07:17:11;11.70;99.90
23681;DHT22;62915;50.832;4.462;2023-11-21T07:19:37;11.70;99.90
23681;DHT22;62915;50.832;4.462;2023-11-21T07:22:03;11.70;99.90
23681;DHT22;62915;50.832;4.462;2023-11-21T07:24:30;11.70;99.90
23681;DHT22;62915;50.832;4.462;2023-11-21T07:26:57;11.80;99.90
23681;DHT22;62915;50.832;4.462;2023-11-21T07:29:23;11.60;99.90
23681;DHT22;62915;50.832;4.462;2023-11-21T07:31:51;11.70;99.90
23681;DHT22;62915;50.832;4.462;2023-11-21T07:34:17;11.70;99.90
23681;DHT22;62915;50.832;4.462;2023-11-21T07:36:42;11.70;99.90
23681;DHT22;62915;50.832;4.462;2023-11-21T07:39:08;11.80;99.90
23681;DHT22;62915;50.832;4.462;2023-11-21T07:41:33;11.70;99.90
23681;DHT22;62915;50.832;4.462;2023-11-21T07:43:59;11.80;99.90
23681;DHT22;62915;50.832;4.462;2023-11-21T07:46:25;11.80;99.90
23681;DHT22;62915;50.832;4.462;2023-11-21T07:48:51;11.80;99.90
23681;DHT22;62915;50.832;4.462;2023-11-21T07:51:17;11.80;99.90
23681;DHT22;62915;50.832;4.462;2023-11-21T07:53:43;11.80;99.90
23681;DHT22;62915;50.832;4.462;2023-11-21T07:56:09;11.80;99.90
23681;DHT22;62915;50.832;4.462;2023-11-21T07:58:35;11.80;99.90
23681;DHT22;62915;50.832;4.462;2023-11-21T08:01:01;12.10;99.90
23681;DHT22;62915;50.832;4.462;2023-11-21T08:05:58;12.10;99.90
23681;DHT22;62915;50.832;4.462;2023-11-21T08:08:24;12.00;99.90
23681;DHT22;62915;50.832;4.462;2023-11-21T08:10:51;11.80;99.90
23681;DHT22;62915;50.832;4.462;2023-11-21T08:13:26;11.90;99.90
23681;DHT22;62915;50.832;4.462;2023-11-21T08:15:58;11.90;99.90
23681;DHT22;62915;50.832;4.462;2023-11-21T08:18:30;11.90;99.90
23681;DHT22;62915;50.832;4.462;2023-11-21T08:20:57;11.80;99.90
23681;DHT22;62915;50.832;4.462;2023-11-21T08:23:23;11.90;99.90
23681;DHT22;62915;50.832;4.462;2023-11-21T08:25:54;11.80;99.90
23681;DHT22;62915;50.832;4.462;2023-11-21T08:28:21;11.80;99.90
23681;DHT22;62915;50.832;4.462;2023-11-21T08:30:52;11.80;99.90
23681;DHT22;62915;50.832;4.462;2023-11-21T08:33:18;11.90;99.90
23681;DHT22;62915;50.832;4.462;2023-11-21T08:35:44;11.90;99.90
23681;DHT22;62915;50.832;4.462;2023-11-21T08:38:12;11.90;99.90
23681;DHT22;62915;50.832;4.462;2023-11-21T08:40:38;11.80;99.90
23681;DHT22;62915;50.832;4.462;2023-11-21T08:43:04;11.80;99.90
23681;DHT22;62915;50.832;4.462;2023-11-21T08:45:33;11.80;99.90
23681;DHT22;62915;50.832;4.462;2023-11-21T08:48:00;11.90;99.90
23681;DHT22;62915;50.832;4.462;2023-11-21T08:50:26;11.90;99.90
23681;DHT22;62915;50.832;4.462;2023-11-21T08:52:51;12.00;99.90
23681;DHT22;62915;50.832;4.462;2023-11-21T08:55:17;12.10;99.90
23681;DHT22;62915;50.832;4.462;2023-11-21T08:57:45;12.10;99.90
23681;DHT22;62915;50.832;4.462;2023-11-21T09:00:12;11.90;99.90
23681;DHT22;62915;50.832;4.462;2023-11-21T09:02:41;11.90;99.90
23681;DHT22;62915;50.832;4.462;2023-11-21T09:05:11;11.90;99.90
23681;DHT22;62915;50.832;4.462;2023-11-21T09:07:38;11.90;99.90
23681;DHT22;62915;50.832;4.462;2023-11-21T09:10:05;12.00;99.90
23681;DHT22;62915;50.832;4.462;2023-11-21T09:12:36;12.00;99.90
23681;DHT22;62915;50.832;4.462;2023-11-21T09:15:06;12.00;99.90
23681;DHT22;62915;50.832;4.462;2023-11-21T09:17:33;12.10;99.90
23681;DHT22;62915;50.832;4.462;2023-11-21T09:19:59;12.10;99.90
23681;DHT22;62915;50.832;4.462;2023-11-21T09:22:26;12.00;99.90
23681;DHT22;62915;50.832;4.462;2023-11-21T09:24:55;12.00;99.90
23681;DHT22;62915;50.832;4.462;2023-11-21T09:27:23;12.10;99.90
23681;DHT22;62915;50.832;4.462;2023-11-21T09:29:49;12.00;99.90
23681;DHT22;62915;50.832;4.462;2023-11-21T09:32:16;12.10;99.90
23681;DHT22;62915;50.832;4.462;2023-11-21T09:34:41;12.00;99.90
23681;DHT22;62915;50.832;4.462;2023-11-21T09:37:07;12.00;99.90
23681;DHT22;62915;50.832;4.462;2023-11-21T09:39:34;11.90;99.90
23681;DHT22;62915;50.832;4.462;2023-11-21T09:42:23;11.90;99.90
23681;DHT22;62915;50.832;4.462;2023-11-21T09:47:24;12.00;99.90
23681;DHT22;62915;50.832;4.462;2023-11-21T09:49:52;12.00;99.90
23681;DHT22;62915;50.832;4.462;2023-11-21T09:52:25;12.00;99.90
23681;DHT22;62915;50.832;4.462;2023-11-21T09:54:53;11.90;99.90
23681;DHT22;62915;50.832;4.462;2023-11-21T09:57:23;11.80;99.90
23681;DHT22;62915;50.832;4.462;2023-11-21T09:59:53;11.70;99.90
23681;DHT22;62915;50.832;4.462;2023-11-21T10:02:26;11.80;99.90
23681;DHT22;62915;50.832;4.462;2023-11-21T10:04:53;11.80;99.90
23681;DHT22;62915;50.832;4.462;2023-11-21T10:07:21;11.90;99.90
23681;DHT22;62915;50.832;4.462;2023-11-21T10:09:47;11.90;99.90
23681;DHT22;62915;50.832;4.462;2023-11-21T10:12:15;11.80;99.90
23681;DHT22;62915;50.832;4.462;2023-11-21T10:14:42;11.80;99.90
23681;DHT22;62915;50.832;4.462;2023-11-21T10:17:12;11.80;99.90
23681;DHT22;62915;50.832;4.462;2023-11-21T10:19:42;11.80;99.90
23681;DHT22;62915;50.832;4.462;2023-11-21T10:22:09;11.80;99.90
23681;DHT22;62915;50.832;4.462;2023-11-21T10:24:35;11.80;99.90
23681;DHT22;62915;50.832;4.462;2023-11-21T10:27:03;11.80;99.90
23681;DHT22;62915;50.832;4.462;2023-11-21T10:29:29;11.70;99.90
23681;DHT22;62915;50.832;4.462;2023-11-21T10:31:56;11.70;99.90
23681;DHT22;62915;50.832;4.462;2023-11-21T10:34:24;11.60;99.90
23681;DHT22;62915;50.832;4.462;2023-11-21T10:36:50;11.60;99.90
23681;DHT22;62915;50.832;4.462;2023-11-21T10:39:22;11.60;99.90
23681;DHT22;62915;50.832;4.462;2023-11-21T10:41:49;11.60;99.90
23681;DHT22;62915;50.832;4.462;2023-11-21T10:44:16;11.60;99.90
23681;DHT22;62915;50.832;4.462;2023-11-21T10:46:50;11.70;99.90
23681;DHT22;62915;50.832;4.462;2023-11-21T10:49:24;11.70;99.90
23681;DHT22;62915;50.832;4.462;2023-11-21T10:51:51;11.80;99.90
23681;DHT22;62915;50.832;4.462;2023-11-21T10:54:23;11.70;99.90
23681;DHT22;62915;50.832;4.462;2023-11-21T10:56:50;11.60;99.90
23681;DHT22;62915;50.832;4.462;2023-11-21T10:59:19;11.70;99.90
23681;DHT22;62915;50.832;4.462;2023-11-21T11:01:46;11.80;99.90
23681;DHT22;62915;50.832;4.462;2023-11-21T11:04:14;11.80;99.90
23681;DHT22;62915;50.832;4.462;2023-11-21T11:07:02;11.90;99.90
23681;DHT22;62915;50.832;4.462;2023-11-21T11:09:31;11.90;99.90
23681;DHT22;62915;50.832;4.462;2023-11-21T11:12:02;11.90;99.90
23681;DHT22;62915;50.832;4.462;2023-11-21T11:14:29;11.90;99.90
23681;DHT22;62915;50.832;4.462;2023-11-21T11:16:55;11.90;99.90
23681;DHT22;62915;50.832;4.462;2023-11-21T11:19:21;11.90;99.90
23681;DHT22;62915;50.832;4.462;2023-11-21T11:24:49;11.80;99.90
23681;DHT22;62915;50.832;4.462;2023-11-21T11:36:00;12.00;99.90
23681;DHT22;62915;50.832;4.462;2023-11-21T11:38:31;12.00;99.90
23681;DHT22;62915;50.832;4.462;2023-11-21T11:41:02;12.10;99.90
23681;DHT22;62915;50.832;4.462;2023-11-21T11:43:29;12.00;99.90
23681;DHT22;62915;50.832;4.462;2023-11-21T11:45:59;12.00;99.90
23681;DHT22;62915;50.832;4.462;2023-11-21T11:48:25;12.00;99.90
23681;DHT22;62915;50.832;4.462;2023-11-21T11:51:10;12.10;99.90
23681;DHT22;62915;50.832;4.462;2023-11-21T11:53:41;12.20;99.90
23681;DHT22;62915;50.832;4.462;2023-11-21T11:58:55;12.30;99.90
23681;DHT22;62915;50.832;4.462;2023-11-21T12:01:22;12.30;99.90
23681;DHT22;62915;50.832;4.462;2023-11-21T12:07:01;12.30;99.90
23681;DHT22;62915;50.832;4.462;2023-11-21T12:09:28;12.30;99.90
23681;DHT22;62915;50.832;4.462;2023-11-21T12:11:56;12.20;99.90
23681;DHT22;62915;50.832;4.462;2023-11-21T12:14:25;12.10;99.90
23681;DHT22;62915;50.832;4.462;2023-11-21T12:16:51;12.20;99.90
23681;DHT22;62915;50.832;4.462;2023-11-21T12:19:17;12.20;99.90
23681;DHT22;62915;50.832;4.462;2023-11-21T12:21:43;12.10;99.90
23681;DHT22;62915;50.832;4.462;2023-11-21T12:24:14;12.10;99.90
23681;DHT22;62915;50.832;4.462;2023-11-21T12:26:42;12.10;99.90
23681;DHT22;62915;50.832;4.462;2023-11-21T12:29:08;12.10;99.90
23681;DHT22;62915;50.832;4.462;2023-11-21T12:31:34;12.00;99.90
23681;DHT22;62915;50.832;4.462;2023-11-21T12:34:00;12.00;99.90
23681;DHT22;62915;50.832;4.462;2023-11-21T12:36:26;12.00;99.90
23681;DHT22;62915;50.832;4.462;2023-11-21T12:38:54;12.00;99.90
23681;DHT22;62915;50.832;4.462;2023-11-21T12:41:20;12.10;99.90
23681;DHT22;62915;50.832;4.462;2023-11-21T12:43:47;12.10;99.90
23681;DHT22;62915;50.832;4.462;2023-11-21T12:46:13;12.00;99.90
23681;DHT22;62915;50.832;4.462;2023-11-21T12:48:44;11.90;99.90
23681;DHT22;62915;50.832;4.462;2023-11-21T12:51:13;11.90;99.90
23681;DHT22;62915;50.832;4.462;2023-11-21T12:53:42;11.90;99.90
23681;DHT22;62915;50.832;4.462;2023-11-21T12:56:11;12.00;99.90
23681;DHT22;62915;50.832;4.462;2023-11-21T12:58:38;12.00;99.90
23681;DHT22;62915;50.832;4.462;2023-11-21T13:01:07;12.00;99.90
23681;DHT22;62915;50.832;4.462;2023-11-21T13:03:40;11.90;99.90
23681;DHT22;62915;50.832;4.462;2023-11-21T13:06:08;12.00;99.90
23681;DHT22;62915;50.832;4.462;2023-11-21T13:08:34;12.00;99.90
23681;DHT22;62915;50.832;4.462;2023-11-21T13:11:00;12.00;99.90
23681;DHT22;62915;50.832;4.462;2023-11-21T13:13:28;12.00;99.90
23681;DHT22;62915;50.832;4.462;2023-11-21T13:15:56;12.10;99.90
23681;DHT22;62915;50.832;4.462;2023-11-21T13:18:26;12.10;99.90
23681;DHT22;62915;50.832;4.462;2023-11-21T13:20:57;12.10;99.90
23681;DHT22;62915;50.832;4.462;2023-11-21T13:23:24;12.10;99.90
23681;DHT22;62915;50.832;4.462;2023-11-21T13:25:51;12.00;99.90
23681;DHT22;62915;50.832;4.462;2023-11-21T13:28:17;11.90;99.90
23681;DHT22;62915;50.832;4.462;2023-11-21T13:30:46;11.80;99.90
23681;DHT22;62915;50.832;4.462;2023-11-21T13:33:13;11.80;99.90
23681;DHT22;62915;50.832;4.462;2023-11-21T13:35:43;11.80;99.90
23681;DHT22;62915;50.832;4.462;2023-11-21T13:38:17;11.80;99.90
23681;DHT22;62915;50.832;4.462;2023-11-21T13:40:53;11.80;99.90
23681;DHT22;62915;50.832;4.462;2023-11-21T13:43:21;11.90;99.90
23681;DHT22;62915;50.832;4.462;2023-11-21T13:45:50;11.80;99.90
23681;DHT22;62915;50.832;4.462;2023-11-21T13:48:24;11.80;99.90
23681;DHT22;62915;50.832;4.462;2023-11-21T13:51:11;11.80;99.90
23681;DHT22;62915;50.832;4.462;2023-11-21T13:53:45;11.90;99.90
23681;DHT22;62915;50.832;4.462;2023-11-21T13:56:14;11.90;99.90
23681;DHT22;62915;50.832;4.462;2023-11-21T13:58:45;11.90;99.90
23681;DHT22;62915;50.832;4.462;2023-11-21T14:01:18;11.90;99.90
23681;DHT22;62915;50.832;4.462;2023-11-21T14:03:49;11.90;99.90
23681;DHT22;62915;50.832;4.462;2023-11-21T14:06:22;11.90;99.90
23681;DHT22;62915;50.832;4.462;2023-11-21T14:08:52;11.90;99.90
23681;DHT22;62915;50.832;4.462;2023-11-21T14:11:22;11.90;99.90
23681;DHT22;62915;50.832;4.462;2023-11-21T14:13:48;11.90;99.90
23681;DHT22;62915;50.832;4.462;2023-11-21T14:16:14;12.00;99.90
23681;DHT22;62915;50.832;4.462;2023-11-21T14:18:42;12.10;99.90
23681;DHT22;62915;50.832;4.462;2023-11-21T14:21:21;12.10;99.90
23681;DHT22;62915;50.832;4.462;2023-11-21T14:23:47;12.10;99.90
23681;DHT22;62915;50.832;4.462;2023-11-21T14:26:14;12.20;99.90
23681;DHT22;62915;50.832;4.462;2023-11-21T14:28:41;12.20;99.90
23681;DHT22;62915;50.832;4.462;2023-11-21T14:31:07;12.10;99.90
23681;DHT22;62915;50.832;4.462;2023-11-21T14:33:34;12.10;99.90
23681;DHT22;62915;50.832;4.462;2023-11-21T14:36:00;11.90;99.90
23681;DHT22;62915;50.832;4.462;2023-11-21T14:38:25;11.90;99.90
23681;DHT22;62915;50.832;4.462;2023-11-21T14:40:52;11.90;99.90
23681;DHT22;62915;50.832;4.462;2023-11-21T14:43:17;11.90;99.90
23681;DHT22;62915;50.832;4.462;2023-11-21T14:45:44;12.00;99.90
23681;DHT22;62915;50.832;4.462;2023-11-21T14:48:10;11.90;99.90
23681;DHT22;62915;50.832;4.462;2023-11-21T14:50:42;12.00;99.90
23681;DHT22;62915;50.832;4.462;2023-11-21T14:53:09;12.10;99.90
23681;DHT22;62915;50.832;4.462;2023-11-21T14:55:37;12.10;99.90
23681;DHT22;62915;50.832;4.462;2023-11-21T14:58:20;12.10;99.90
23681;DHT22;62915;50.832;4.462;2023-11-21T15:00:56;12.00;99.90
23681;DHT22;62915;50.832;4.462;2023-11-21T15:03:27;11.90;99.90
23681;DHT22;62915;50.832;4.462;2023-11-21T15:05:59;11.90;99.90
23681;DHT22;62915;50.832;4.462;2023-11-21T15:08:44;11.90;99.90
23681;DHT22;62915;50.832;4.462;2023-11-21T15:11:11;11.80;99.90
23681;DHT22;62915;50.832;4.462;2023-11-21T15:13:40;11.80;99.90
23681;DHT22;62915;50.832;4.462;2023-11-21T15:16:08;11.70;99.90
23681;DHT22;62915;50.832;4.462;2023-11-21T15:18:36;11.50;99.90
23681;DHT22;62915;50.832;4.462;2023-11-21T15:21:02;11.50;99.90
23681;DHT22;62915;50.832;4.462;2023-11-21T15:23:31;11.50;99.90
23681;DHT22;62915;50.832;4.462;2023-11-21T15:26:00;11.50;99.90
23681;DHT22;62915;50.832;4.462;2023-11-21T15:28:27;11.50;99.90
23681;DHT22;62915;50.832;4.462;2023-11-21T15:30:54;11.40;99.90
23681;DHT22;62915;50.832;4.462;2023-11-21T15:33:20;11.50;99.90
23681;DHT22;62915;50.832;4.462;2023-11-21T15:35:45;11.50;99.90
23681;DHT22;62915;50.832;4.462;2023-11-21T15:38:11;11.50;99.90
23681;DHT22;62915;50.832;4.462;2023-11-21T15:40:38;11.50;99.90
23681;DHT22;62915;50.832;4.462;2023-11-21T15:43:04;11.50;99.90
23681;DHT22;62915;50.832;4.462;2023-11-21T15:45:32;11.40;99.90
23681;DHT22;62915;50.832;4.462;2023-11-21T15:47:58;11.30;99.90
23681;DHT22;62915;50.832;4.462;2023-11-21T15:50:24;11.30;99.90
23681;DHT22;62915;50.832;4.462;2023-11-21T15:52:51;11.40;99.90